createdAt,value
2022-12-04T00:02:06.084Z,46.85
2022-12-04T00:04:32.696Z,49.05
2022-12-04T00:06:59.303Z,45.90
2022-12-04T00:09:25.846Z,39.17
2022-12-04T00:11:52.276Z,49.67
2022-12-04T00:14:18.819Z,44.42
2022-12-04T00:16:45.369Z,47.22
2022-12-04T00:19:11.887Z,45.15
2022-12-04T00:21:38.412Z,49.25
2022-12-04T00:24:05.443Z,43.42
2022-12-04T00:26:31.874Z,46.60
2022-12-04T00:28:59.148Z,49.95
2022-12-04T00:31:27.726Z,41.08
2022-12-04T00:33:54.301Z,48.17
2022-12-04T00:36:23.772Z,43.30
2022-12-04T00:38:50.704Z,45.90
2022-12-04T00:41:19.486Z,46.95
2022-12-04T00:43:46.077Z,52.95
2022-12-04T00:46:12.906Z,38.58
2022-12-04T00:48:39.901Z,42.05
2022-12-04T00:51:10.021Z,46.25
2022-12-04T00:53:36.888Z,50.30
2022-12-04T00:56:11.197Z,44.90
2022-12-04T00:58:37.687Z,41.60
2022-12-04T01:01:07.736Z,45.25
2022-12-04T01:03:34.729Z,49.63
2022-12-04T01:06:04.402Z,46.90
2022-12-04T01:08:30.878Z,45.05
2022-12-04T01:10:57.519Z,42.08
2022-12-04T01:13:25.079Z,50.97
2022-12-04T01:15:52.520Z,41.95
2022-12-04T01:18:19.122Z,44.72
2022-12-04T01:20:51.267Z,46.25
2022-12-04T01:23:18.847Z,47.17
2022-12-04T01:25:56.838Z,45.13
2022-12-04T01:28:24.092Z,47.65
2022-12-04T01:30:57.840Z,51.20
2022-12-04T01:33:24.322Z,43.70
2022-12-04T01:35:55.574Z,48.22
2022-12-04T01:38:22.303Z,50.83
2022-12-04T01:40:49.460Z,49.88
2022-12-04T01:43:16.978Z,42.83
2022-12-04T01:45:45.626Z,50.42
2022-12-04T01:48:24.366Z,51.25
2022-12-04T01:50:53.638Z,46.83
2022-12-04T01:53:20.994Z,48.40
2022-12-04T01:55:48.600Z,49.58
2022-12-04T01:58:17.412Z,40.42
2022-12-04T02:00:47.397Z,47.88
2022-12-04T02:03:17.887Z,46.45
2022-12-04T02:05:44.336Z,47.70
2022-12-04T02:08:11.078Z,52.35
2022-12-04T02:10:53.960Z,43.20
2022-12-04T02:13:31.151Z,50.75
2022-12-04T02:16:13.281Z,49.65
2022-12-04T02:18:56.765Z,48.28
2022-12-04T02:21:40.465Z,43.67
2022-12-04T02:24:37.230Z,50.60
2022-12-04T02:27:27.734Z,43.83
2022-12-04T02:30:05.498Z,46.28
2022-12-04T02:32:43.781Z,41.03
2022-12-04T02:35:20.326Z,43.67
2022-12-04T02:37:54.014Z,45.97
2022-12-04T02:40:31.438Z,49.50
2022-12-04T02:43:07.672Z,48.92
2022-12-04T02:45:41.593Z,50.30
2022-12-04T02:48:08.535Z,44.20
2022-12-04T02:50:40.436Z,46.85
2022-12-04T02:53:24.623Z,49.85
2022-12-04T02:55:56.634Z,46.67
2022-12-04T02:58:42.351Z,50.83
2022-12-04T03:01:21.866Z,52.58
2022-12-04T03:04:05.715Z,52.80
2022-12-04T03:06:36.462Z,46.15
2022-12-04T03:09:10.548Z,43.25
2022-12-04T03:11:40.263Z,48.80
2022-12-04T03:14:24.499Z,49.05
2022-12-04T03:16:55.046Z,48.67
2022-12-04T03:19:26.951Z,47.85
2022-12-04T03:21:59.699Z,45.63
2022-12-04T03:24:59.247Z,46.15
2022-12-04T03:27:25.656Z,43.63
2022-12-04T03:30:03.479Z,46.70
2022-12-04T03:32:36.412Z,45.05
2022-12-04T03:35:37.238Z,50.72
2022-12-04T03:38:16.595Z,48.10
2022-12-04T03:41:13.464Z,48.58
2022-12-04T03:44:05.804Z,49.05
2022-12-04T03:46:40.279Z,42.28
2022-12-04T03:49:26.228Z,46.80
2022-12-04T03:52:04.460Z,52.95
2022-12-04T03:54:35.126Z,52.40
2022-12-04T03:57:12.757Z,48.63
2022-12-04T03:59:43.966Z,42.83
2022-12-04T04:02:14.767Z,43.95
2022-12-04T04:04:45.003Z,49.83
2022-12-04T04:07:15.964Z,44.38
2022-12-04T04:09:47.584Z,48.07
2022-12-04T04:12:19.828Z,44.28
2022-12-04T04:15:12.114Z,42.92
2022-12-04T04:18:02.179Z,54.72
2022-12-04T04:21:00.269Z,43.60
2022-12-04T04:24:00.987Z,50.60
2022-12-04T04:26:34.133Z,56.88
2022-12-04T04:29:00.608Z,47.83
2022-12-04T04:31:48.534Z,45.17
2022-12-04T04:34:37.775Z,44.28
2022-12-04T04:37:25.463Z,52.72
2022-12-04T04:40:05.595Z,45.67
2022-12-04T04:42:43.613Z,57.15
2022-12-04T04:45:25.590Z,47.35
2022-12-04T04:50:19.794Z,47.30
2022-12-04T04:52:50.838Z,49.70
2022-12-04T04:55:18.217Z,50.58
2022-12-04T04:57:44.834Z,45.38
2022-12-04T05:00:18.123Z,49.35
2022-12-04T05:02:45.419Z,51.13
2022-12-04T05:05:13.290Z,46.90
2022-12-04T05:07:39.856Z,48.15
2022-12-04T05:10:07.073Z,57.50
2022-12-04T05:12:33.467Z,54.80
2022-12-04T05:14:59.948Z,46.25
2022-12-04T05:17:26.397Z,49.88
2022-12-04T05:19:59.275Z,47.65
2022-12-04T05:22:36.875Z,53.40
2022-12-04T05:25:04.394Z,55.38
2022-12-04T05:27:30.909Z,46.20
2022-12-04T05:29:58.597Z,48.25
2022-12-04T05:32:27.445Z,45.90
2022-12-04T05:34:55.957Z,47.80
2022-12-04T05:37:23.278Z,51.20
2022-12-04T05:39:49.792Z,46.28
2022-12-04T05:42:16.430Z,45.33
2022-12-04T05:44:42.820Z,61.50
2022-12-04T05:47:09.681Z,51.40
2022-12-04T05:49:36.167Z,41.33
2022-12-04T05:52:04.516Z,46.53
2022-12-04T05:54:30.960Z,51.83
2022-12-04T05:56:57.379Z,51.70
2022-12-04T05:59:24.090Z,46.00
2022-12-04T06:01:50.598Z,46.00
2022-12-04T06:04:17.166Z,35.70
2022-12-04T06:06:43.757Z,49.10
2022-12-04T06:09:11.479Z,53.55
2022-12-04T06:11:40.421Z,57.40
2022-12-04T06:14:08.931Z,46.28
2022-12-04T06:16:38.536Z,52.38
2022-12-04T06:19:08.812Z,43.65
2022-12-04T06:21:37.636Z,50.38
2022-12-04T06:24:05.261Z,50.50
2022-12-04T06:26:31.717Z,48.42
2022-12-04T06:28:59.908Z,44.03
2022-12-04T06:31:28.245Z,40.15
2022-12-04T06:33:56.055Z,39.70
2022-12-04T06:36:23.517Z,53.58
2022-12-04T06:38:51.410Z,45.88
2022-12-04T06:41:19.931Z,45.90
2022-12-04T06:43:46.451Z,45.17
2022-12-04T06:46:15.809Z,44.08
2022-12-04T06:48:42.720Z,45.22
2022-12-04T06:51:15.611Z,43.78
2022-12-04T06:53:42.742Z,42.33
2022-12-04T06:56:13.011Z,49.30
2022-12-04T06:58:39.985Z,49.95
2022-12-04T07:01:11.987Z,44.50
2022-12-04T07:03:39.200Z,43.75
2022-12-04T07:06:15.027Z,52.13
2022-12-04T07:08:42.147Z,43.85
2022-12-04T07:11:09.175Z,49.35
2022-12-04T07:13:35.560Z,46.40
2022-12-04T07:16:03.890Z,50.30
2022-12-04T07:18:31.814Z,44.25
2022-12-04T07:20:58.871Z,49.92
2022-12-04T07:23:25.610Z,43.78
2022-12-04T07:25:52.039Z,47.22
2022-12-04T07:28:18.440Z,45.50
2022-12-04T07:30:44.944Z,53.53
2022-12-04T07:33:11.378Z,50.08
2022-12-04T07:35:37.851Z,46.53
2022-12-04T07:38:04.402Z,46.67
2022-12-04T07:40:30.873Z,48.33
2022-12-04T07:42:57.386Z,46.35
2022-12-04T07:45:23.835Z,45.33
2022-12-04T07:47:50.341Z,43.65
2022-12-04T07:50:16.811Z,48.70
2022-12-04T07:52:43.242Z,43.85
2022-12-04T07:55:09.755Z,44.38
2022-12-04T07:57:36.189Z,48.10
2022-12-04T08:00:03.483Z,43.38
2022-12-04T08:02:38.676Z,47.55
2022-12-04T08:05:05.411Z,46.47
2022-12-04T08:07:32.185Z,48.97
2022-12-04T08:09:58.779Z,45.50
2022-12-04T08:12:25.374Z,50.97
2022-12-04T08:14:51.910Z,41.53
2022-12-04T08:17:18.445Z,48.53
2022-12-04T08:19:44.994Z,47.13
2022-12-04T08:22:11.464Z,56.95
2022-12-04T08:24:37.879Z,50.60
2022-12-04T08:27:04.354Z,48.03
2022-12-04T08:29:30.848Z,47.45
2022-12-04T08:31:57.292Z,48.55
2022-12-04T08:34:23.949Z,44.50
2022-12-04T08:36:50.523Z,47.05
2022-12-04T08:39:16.949Z,47.13
2022-12-04T08:41:43.491Z,44.28
2022-12-04T08:44:10.357Z,46.65
2022-12-04T08:46:36.929Z,44.28
2022-12-04T08:49:03.509Z,45.38
2022-12-04T08:51:32.106Z,43.55
2022-12-04T08:54:01.001Z,42.28
2022-12-04T08:56:29.756Z,40.40
2022-12-04T08:58:57.090Z,44.90
2022-12-04T09:01:25.424Z,44.25
2022-12-04T09:03:52.381Z,44.55
2022-12-04T09:06:19.033Z,43.67
2022-12-04T09:08:45.524Z,46.03
2022-12-04T09:11:15.029Z,44.53
2022-12-04T09:13:42.026Z,46.22
2022-12-04T09:16:11.532Z,47.80
2022-12-04T09:18:38.731Z,40.20
2022-12-04T09:21:08.991Z,43.53
2022-12-04T09:23:36.809Z,51.20
2022-12-04T09:26:03.953Z,42.63
2022-12-04T09:28:30.402Z,45.97
2022-12-04T09:31:02.199Z,48.50
2022-12-04T09:36:01.482Z,38.20
2022-12-04T09:38:28.962Z,48.78
2022-12-04T09:41:30.911Z,39.85
2022-12-04T09:44:06.255Z,37.90
2022-12-04T09:46:40.319Z,40.53
2022-12-04T09:49:41.962Z,45.45
2022-12-04T09:52:36.235Z,23.80
2022-12-04T09:55:04.722Z,42.25
2022-12-04T09:57:48.159Z,53.40
2022-12-04T10:00:17.828Z,44.15
2022-12-04T10:03:12.333Z,36.67
2022-12-04T10:06:06.689Z,42.55
2022-12-04T10:08:39.677Z,38.50
2022-12-04T10:11:17.394Z,34.75
2022-12-04T10:13:49.841Z,34.55
2022-12-04T10:16:28.324Z,37.05
2022-12-04T10:19:09.051Z,36.97
2022-12-04T10:21:48.590Z,34.95
2022-12-04T10:24:28.361Z,34.38
2022-12-04T10:26:58.078Z,31.35
2022-12-04T10:29:32.302Z,35.47
2022-12-04T10:32:13.787Z,37.30
2022-12-04T10:34:45.490Z,36.33
2022-12-04T10:37:13.984Z,31.05
2022-12-04T10:39:51.681Z,34.60
2022-12-04T10:42:44.446Z,27.33
2022-12-04T10:45:13.007Z,26.13
2022-12-04T10:47:45.066Z,26.88
2022-12-04T10:50:20.731Z,29.35
2022-12-04T10:52:47.472Z,25.00
2022-12-04T10:55:14.057Z,29.63
2022-12-04T10:57:46.579Z,28.73
2022-12-04T11:00:34.427Z,25.38
2022-12-04T11:03:08.383Z,28.08
2022-12-04T11:05:45.596Z,28.58
2022-12-04T11:08:38.071Z,30.33
2022-12-04T11:11:11.334Z,26.80
2022-12-04T11:13:38.838Z,30.08
2022-12-04T11:16:06.586Z,21.15
2022-12-04T11:18:45.927Z,26.05
2022-12-04T11:21:27.685Z,23.27
2022-12-04T11:23:54.512Z,23.55
2022-12-04T11:26:33.655Z,23.80
2022-12-04T11:29:01.893Z,23.35
2022-12-04T11:31:29.592Z,25.15
2022-12-04T11:34:02.917Z,28.40
2022-12-04T11:36:34.965Z,23.50
2022-12-04T11:39:13.444Z,19.33
2022-12-04T11:41:42.496Z,23.30
2022-12-04T11:44:30.046Z,23.13
2022-12-04T11:46:59.016Z,20.98
2022-12-04T11:49:26.874Z,20.63
2022-12-04T11:52:30.339Z,22.70
2022-12-04T11:55:06.082Z,20.50
2022-12-04T11:58:02.155Z,23.75
2022-12-04T12:00:30.949Z,17.85
2022-12-04T12:03:27.912Z,23.98
2022-12-04T12:06:00.301Z,23.63
2022-12-04T12:08:40.569Z,21.88
2022-12-04T12:11:10.580Z,20.77
2022-12-04T12:13:47.779Z,23.83
2022-12-04T12:16:29.951Z,19.77
2022-12-04T12:19:19.330Z,22.75
2022-12-04T12:22:05.147Z,18.00
2022-12-04T12:25:03.812Z,14.90
2022-12-04T12:27:42.464Z,20.95
2022-12-04T12:30:20.997Z,20.90
2022-12-04T12:33:00.889Z,18.08
2022-12-04T12:35:33.704Z,24.90
2022-12-04T12:38:05.688Z,18.35
2022-12-04T12:40:41.122Z,17.15
2022-12-04T12:43:16.080Z,21.40
2022-12-04T12:45:54.329Z,19.75
2022-12-04T12:48:26.894Z,19.10
2022-12-04T12:51:28.366Z,13.20
2022-12-04T12:53:55.366Z,16.65
2022-12-04T12:56:43.483Z,21.77
2022-12-04T12:59:20.185Z,15.48
2022-12-04T13:02:02.271Z,19.88
2022-12-04T13:04:40.438Z,19.08
2022-12-04T13:07:20.599Z,16.80
2022-12-04T13:09:56.534Z,16.92
2022-12-04T13:12:24.817Z,17.27
2022-12-04T13:14:51.246Z,17.05
2022-12-04T13:17:25.847Z,17.55
2022-12-04T13:19:56.287Z,20.13
2022-12-04T13:23:01.274Z,24.67
2022-12-04T13:25:51.607Z,18.77
2022-12-04T13:28:17.966Z,20.65
2022-12-04T13:30:57.053Z,18.83
2022-12-04T13:33:38.210Z,18.55
2022-12-04T13:36:35.577Z,17.00
2022-12-04T13:39:04.759Z,22.63
2022-12-04T13:41:35.842Z,22.70
2022-12-04T13:44:07.103Z,22.05
2022-12-04T13:46:37.679Z,15.27
2022-12-04T13:49:08.032Z,20.90
2022-12-04T13:51:45.933Z,18.55
2022-12-04T13:54:12.355Z,18.30
2022-12-04T13:56:44.315Z,17.85
2022-12-04T13:59:30.908Z,22.30
2022-12-04T14:02:06.468Z,16.98
2022-12-04T14:04:51.973Z,23.88
2022-12-04T14:07:39.972Z,19.95
2022-12-04T14:10:14.062Z,22.67
2022-12-04T14:12:43.899Z,27.30
2022-12-04T14:15:21.537Z,27.35
2022-12-04T14:18:17.705Z,29.13
2022-12-04T14:20:44.684Z,28.15
2022-12-04T14:23:19.968Z,25.10
2022-12-04T14:25:46.385Z,23.40
2022-12-04T14:28:24.765Z,22.88
2022-12-04T14:31:03.670Z,28.05
2022-12-04T14:33:32.630Z,23.55
2022-12-04T14:36:06.985Z,24.52
2022-12-04T14:38:33.999Z,31.33
2022-12-04T14:41:01.617Z,27.70
2022-12-04T14:43:39.518Z,32.42
2022-12-04T14:46:15.868Z,33.05
2022-12-04T14:49:18.374Z,30.80
2022-12-04T14:51:48.250Z,24.77
2022-12-04T14:54:39.091Z,31.17
2022-12-04T14:57:41.081Z,29.98
2022-12-04T15:00:19.398Z,29.23
2022-12-04T15:02:47.935Z,36.13
2022-12-04T15:05:31.570Z,32.72
2022-12-04T15:08:06.118Z,41.30
2022-12-04T15:10:53.808Z,34.53
2022-12-04T15:13:33.599Z,29.80
2022-12-04T15:16:19.803Z,32.63
2022-12-04T15:18:56.852Z,34.22
2022-12-04T15:21:28.246Z,36.50
2022-12-04T15:23:54.678Z,35.25
2022-12-04T15:26:24.680Z,44.28
2022-12-04T15:28:57.741Z,41.25
2022-12-04T15:31:35.261Z,33.85
2022-12-04T15:34:07.414Z,34.45
2022-12-04T15:36:45.768Z,37.92
2022-12-04T15:39:29.722Z,35.63
2022-12-04T15:42:19.102Z,26.33
2022-12-04T15:45:01.758Z,33.65
2022-12-04T15:47:31.054Z,36.95
2022-12-04T15:50:22.566Z,32.92
2022-12-04T15:52:55.155Z,35.00
2022-12-04T15:55:24.447Z,36.05
2022-12-04T15:57:54.079Z,34.60
2022-12-04T16:00:26.260Z,40.20
2022-12-04T16:02:53.729Z,43.92
2022-12-04T16:05:20.198Z,34.40
2022-12-04T16:07:52.548Z,36.42
2022-12-04T16:10:23.671Z,33.75
2022-12-04T16:12:55.174Z,41.83
2022-12-04T16:15:22.519Z,36.72
2022-12-04T16:17:49.211Z,32.97
2022-12-04T16:20:15.819Z,37.33
2022-12-04T16:22:42.503Z,47.95
2022-12-04T16:25:13.370Z,40.47
2022-12-04T16:27:39.869Z,46.77
2022-12-04T16:30:06.943Z,40.70
2022-12-04T16:32:34.189Z,45.72
2022-12-04T16:35:00.920Z,37.92
2022-12-04T16:37:28.536Z,37.33
2022-12-04T16:39:54.974Z,40.83
2022-12-04T16:42:27.515Z,37.40
2022-12-04T16:44:54.891Z,38.63
2022-12-04T16:47:22.239Z,38.53
2022-12-04T16:49:51.375Z,43.90
2022-12-04T16:52:19.142Z,35.53
2022-12-04T16:54:46.151Z,39.97
2022-12-04T16:57:12.628Z,38.25
2022-12-04T16:59:39.065Z,33.85
2022-12-04T17:02:15.695Z,37.13
2022-12-04T17:04:42.284Z,36.67
2022-12-04T17:07:08.730Z,39.78
2022-12-04T17:09:35.166Z,33.65
2022-12-04T17:12:01.576Z,34.22
2022-12-04T17:14:27.997Z,37.80
2022-12-04T17:16:55.073Z,42.35
2022-12-04T17:19:21.635Z,32.95
2022-12-04T17:21:48.043Z,35.47
2022-12-04T17:24:14.904Z,48.75
2022-12-04T17:26:41.606Z,28.63
2022-12-04T17:29:08.034Z,30.77
2022-12-04T17:31:34.518Z,34.13
2022-12-04T17:34:01.079Z,34.63
2022-12-04T17:36:27.754Z,28.65
2022-12-04T17:38:58.489Z,35.83
2022-12-04T17:41:25.360Z,40.40
2022-12-04T17:43:51.775Z,31.83
2022-12-04T17:46:21.734Z,33.83
2022-12-04T17:48:48.795Z,35.83
2022-12-04T17:51:18.710Z,31.30
2022-12-04T17:53:45.615Z,30.40
2022-12-04T17:56:16.216Z,26.40
2022-12-04T17:58:43.379Z,33.17
2022-12-04T18:01:16.140Z,32.50
2022-12-04T18:03:43.830Z,34.50
2022-12-04T18:06:40.656Z,33.33
2022-12-04T18:09:09.361Z,33.35
2022-12-04T18:11:38.018Z,27.33
2022-12-04T18:14:13.563Z,30.85
2022-12-04T18:16:42.862Z,30.90
2022-12-04T18:19:10.723Z,29.45
2022-12-04T18:21:37.343Z,29.50
2022-12-04T18:24:05.264Z,31.73
2022-12-04T18:26:35.510Z,27.88
2022-12-04T18:29:02.350Z,30.77
2022-12-04T18:31:29.330Z,31.25
2022-12-04T18:33:55.854Z,35.13
2022-12-04T18:36:24.831Z,28.70
2022-12-04T18:38:56.871Z,30.00
2022-12-04T18:41:23.791Z,31.90
2022-12-04T18:43:50.737Z,30.45
2022-12-04T18:46:18.355Z,32.15
2022-12-04T18:48:46.746Z,37.92
2022-12-04T18:51:29.531Z,39.60
2022-12-04T18:54:01.258Z,39.55
2022-12-04T18:56:28.522Z,35.00
2022-12-04T18:59:00.372Z,36.10
2022-12-04T19:04:00.057Z,43.08
2022-12-04T19:06:31.488Z,36.03
2022-12-04T19:09:04.807Z,36.05
2022-12-04T19:11:31.878Z,31.42
2022-12-04T19:14:00.185Z,44.08
2022-12-04T19:16:26.816Z,35.88
2022-12-04T19:18:53.389Z,38.22
2022-12-04T19:21:20.250Z,33.78
2022-12-04T19:23:55.021Z,33.42
2022-12-04T19:26:21.518Z,44.03
2022-12-04T19:28:47.990Z,38.72
2022-12-04T19:31:19.683Z,38.13
2022-12-04T19:36:13.945Z,30.75
2022-12-04T19:38:41.207Z,34.42
2022-12-04T19:41:11.929Z,33.00
2022-12-04T19:43:45.231Z,46.38
2022-12-04T19:46:15.136Z,43.75
2022-12-04T19:48:42.463Z,37.80
2022-12-04T19:51:14.390Z,37.25
2022-12-04T19:53:42.040Z,42.88
2022-12-04T19:56:12.031Z,44.88
2022-12-04T19:58:38.987Z,47.63
2022-12-04T20:01:07.038Z,41.65
2022-12-04T20:03:34.539Z,43.70
2022-12-04T20:06:22.833Z,41.85
2022-12-04T20:08:55.125Z,39.00
2022-12-04T20:11:22.436Z,39.03
2022-12-04T20:13:49.231Z,40.75
2022-12-04T20:16:18.275Z,38.75
2022-12-04T20:18:45.254Z,47.88
2022-12-04T20:21:12.671Z,43.40
2022-12-04T20:23:40.816Z,44.63
2022-12-04T20:26:09.731Z,41.78
2022-12-04T20:28:36.612Z,43.45
2022-12-04T20:31:12.801Z,43.60
2022-12-04T20:33:40.999Z,42.15
2022-12-04T20:36:08.643Z,39.67
2022-12-04T20:38:35.160Z,43.65
2022-12-04T20:41:06.735Z,41.10
2022-12-04T20:43:34.099Z,49.08
2022-12-04T20:46:00.845Z,43.65
2022-12-04T20:48:27.839Z,42.17
2022-12-04T20:50:54.308Z,43.75
2022-12-04T20:53:20.852Z,46.70
2022-12-04T20:55:54.925Z,45.35
2022-12-04T20:58:22.186Z,44.53
2022-12-04T21:00:48.979Z,42.55
2022-12-04T21:03:15.921Z,45.97
2022-12-04T21:05:48.658Z,39.53
2022-12-04T21:08:35.348Z,45.70
2022-12-04T21:11:02.920Z,40.67
2022-12-04T21:13:48.170Z,47.63
2022-12-04T21:16:14.865Z,38.13
2022-12-04T21:18:41.591Z,40.20
2022-12-04T21:21:08.201Z,46.35
2022-12-04T21:23:35.940Z,47.05
2022-12-04T21:26:02.863Z,39.67
2022-12-04T21:28:31.155Z,52.40
2022-12-04T21:31:03.203Z,41.90
2022-12-04T21:33:31.577Z,42.67
2022-12-04T21:36:07.084Z,43.45
2022-12-04T21:38:38.123Z,38.75
2022-12-04T21:41:06.354Z,42.78
2022-12-04T21:43:33.390Z,49.38
2022-12-04T21:46:09.474Z,45.17
2022-12-04T21:48:37.001Z,42.17
2022-12-04T21:51:16.859Z,44.00
2022-12-04T21:53:54.720Z,42.90
2022-12-04T21:56:25.059Z,43.03
2022-12-04T21:58:52.238Z,46.45
2022-12-04T22:01:21.433Z,44.45
2022-12-04T22:03:48.446Z,38.70
2022-12-04T22:06:15.034Z,41.47
2022-12-04T22:08:41.951Z,47.42
2022-12-04T22:11:09.881Z,38.28
2022-12-04T22:13:37.664Z,39.00
2022-12-04T22:16:06.377Z,43.75
2022-12-04T22:18:33.819Z,44.67
2022-12-04T22:21:08.524Z,44.38
2022-12-04T22:23:35.839Z,42.03
2022-12-04T22:26:13.726Z,44.65
2022-12-04T22:28:41.151Z,43.00
2022-12-04T22:31:11.567Z,46.72
2022-12-04T22:33:38.651Z,37.42
2022-12-04T22:36:08.514Z,38.50
2022-12-04T22:38:52.404Z,41.30
2022-12-04T22:41:24.252Z,41.47
2022-12-04T22:43:51.438Z,42.78
2022-12-04T22:46:18.230Z,42.42
2022-12-04T22:48:45.116Z,38.17
2022-12-04T22:51:19.949Z,39.53
2022-12-04T22:53:52.080Z,41.90
2022-12-04T22:56:20.106Z,42.55
2022-12-04T22:58:46.728Z,39.65
2022-12-04T23:01:24.667Z,42.88
2022-12-04T23:03:51.818Z,38.42
2022-12-04T23:06:20.237Z,37.50
2022-12-04T23:08:46.965Z,36.42
2022-12-04T23:11:16.743Z,34.83
2022-12-04T23:13:43.874Z,43.15
2022-12-04T23:16:12.396Z,40.58
2022-12-04T23:18:42.165Z,36.95
2022-12-04T23:21:11.794Z,43.55
2022-12-04T23:23:40.425Z,42.85
2022-12-04T23:26:13.567Z,39.00
2022-12-04T23:28:40.449Z,39.25
2022-12-04T23:31:07.040Z,45.80
2022-12-04T23:33:34.064Z,37.92
2022-12-04T23:36:01.842Z,34.85
2022-12-04T23:38:29.342Z,39.83
2022-12-04T23:41:07.900Z,38.63
2022-12-04T23:43:34.996Z,34.42
2022-12-04T23:46:07.264Z,38.13
2022-12-04T23:48:37.213Z,35.25
2022-12-04T23:51:03.779Z,35.75
2022-12-04T23:53:30.191Z,33.08
2022-12-04T23:56:16.569Z,39.08
2022-12-04T23:58:44.732Z,31.27
